Time;durP1;ratioP1;P1;durP2;ratioP2;P2;SDS_P1;SDS_P2;PMS_P1;PMS_P2;Temp;Humidity;BMP_temperature;BMP_pressure;BME280_temperature;BME280_humidity;BME280_pressure;Samples;Min_cycle;Max_cycle;Signal;HPM_P1;HPM_P2
2022/06/07 00:00:20;;;;;;;5.38;3.20;;;;;;;;;;5019138;28;20037;-55
2022/06/07 00:02:46;;;;;;;5.32;3.50;;;;;;;;;;5014527;28;20632;-54
2022/06/07 00:05:12;;;;;;;4.93;3.47;;;;;;;;;;5023195;28;20111;-54
2022/06/07 00:07:38;;;;;;;4.80;3.08;;;;;;;;;;5033525;28;20045;-54
2022/06/07 00:10:05;;;;;;;9.02;3.10;;;;;;;;;;5031654;28;20091;-54
2022/06/07 00:12:31;;;;;;;4.35;3.17;;;;;;;;;;5032114;28;20025;-52
2022/06/07 00:14:57;;;;;;;3.97;2.97;;;;;;;;;;5032043;28;20017;-54
2022/06/07 00:17:23;;;;;;;4.30;3.00;;;;;;;;;;5024983;28;20025;-53
2022/06/07 00:19:50;;;;;;;5.25;3.53;;;;;;;;;;5023764;28;20033;-55
2022/06/07 00:22:16;;;;;;;5.03;2.90;;;;;;;;;;5020627;28;20033;-55
2022/06/07 00:24:43;;;;;;;4.65;2.95;;;;;;;;;;5026980;28;20036;-54
2022/06/07 00:27:08;;;;;;;4.78;3.08;;;;;;;;;;5026867;28;20498;-55
2022/06/07 00:29:35;;;;;;;5.72;3.28;;;;;;;;;;5023494;28;20041;-55
2022/06/07 00:32:02;;;;;;;4.47;2.65;;;;;;;;;;5024758;28;20109;-56
2022/06/07 00:34:28;;;;;;;5.05;2.80;;;;;;;;;;5020254;28;20033;-53
2022/06/07 00:36:54;;;;;;;3.60;2.72;;;;;;;;;;5033072;28;20029;-56
2022/06/07 00:39:20;;;;;;;4.53;3.25;;;;;;;;;;5023458;28;20039;-55
2022/06/07 00:41:46;;;;;;;5.95;3.03;;;;;;;;;;5021180;28;20042;-54
2022/06/07 00:44:18;;;;;;;4.22;3.10;;;;;;;;;;5023449;28;20053;-54
2022/06/07 00:46:45;;;;;;;4.47;3.25;;;;;;;;;;5030424;28;20038;-55
2022/06/07 00:49:12;;;;;;;3.95;3.05;;;;;;;;;;5025972;28;20088;-53
2022/06/07 00:51:39;;;;;;;3.78;3.00;;;;;;;;;;5024788;28;20108;-54
2022/06/07 00:54:05;;;;;;;4.57;2.88;;;;;;;;;;5027559;28;20099;-54
2022/06/07 00:56:31;;;;;;;3.70;3.00;;;;;;;;;;5022457;28;20036;-55
2022/06/07 00:59:00;;;;;;;4.35;3.20;;;;;;;;;;5020821;28;20040;-56
2022/06/07 01:01:26;;;;;;;4.60;3.30;;;;;;;;;;5021719;28;20033;-56
2022/06/07 01:03:53;;;;;;;4.82;3.13;;;;;;;;;;5017935;28;20112;-58
2022/06/07 01:11:49;;;;;;;5.95;3.30;;;;;;;;;;5018830;28;20621;-58
2022/06/07 01:14:15;;;;;;;4.80;2.88;;;;;;;;;;5028291;28;20025;-56
2022/06/07 01:16:41;;;;;;;4.57;3.30;;;;;;;;;;5025013;28;20101;-56
2022/06/07 01:19:07;;;;;;;3.65;2.97;;;;;;;;;;5025074;28;20029;-57
2022/06/07 01:21:37;;;;;;;5.20;3.10;;;;;;;;;;5019224;28;20674;-57
2022/06/07 01:24:04;;;;;;;3.88;2.78;;;;;;;;;;5028441;28;20393;-57
2022/06/07 01:26:30;;;;;;;5.03;3.15;;;;;;;;;;5022646;28;20025;-57
2022/06/07 01:28:56;;;;;;;6.40;3.40;;;;;;;;;;5035668;28;20104;-54
2022/06/07 01:31:22;;;;;;;4.75;3.20;;;;;;;;;;5027431;28;20033;-58
2022/06/07 01:33:48;;;;;;;3.90;2.70;;;;;;;;;;5026052;28;20026;-56
2022/06/07 01:36:15;;;;;;;4.13;3.15;;;;;;;;;;5024327;28;20389;-54
2022/06/07 01:38:43;;;;;;;6.47;2.95;;;;;;;;;;5023127;28;20550;-57
2022/06/07 01:43:54;;;;;;;5.47;3.08;;;;;;;;;;5020762;28;20092;-57
2022/06/07 01:46:20;;;;;;;5.13;3.47;;;;;;;;;;5027225;28;20374;-57
2022/06/07 01:48:48;;;;;;;4.07;3.28;;;;;;;;;;5026900;28;20025;-57
2022/06/07 01:51:14;;;;;;;4.10;3.33;;;;;;;;;;5025098;28;20033;-55
2022/06/07 01:53:40;;;;;;;4.95;3.55;;;;;;;;;;5024160;28;20037;-57
2022/06/07 01:56:11;;;;;;;4.43;3.30;;;;;;;;;;5018256;28;20064;-57
2022/06/07 01:58:38;;;;;;;5.65;3.28;;;;;;;;;;5016451;28;20038;-56
2022/06/07 02:01:04;;;;;;;4.95;3.22;;;;;;;;;;5018772;28;20030;-57
2022/06/07 02:03:30;;;;;;;3.65;2.92;;;;;;;;;;5022276;28;20527;-57
2022/06/07 02:05:57;;;;;;;4.07;3.10;;;;;;;;;;5029396;28;20160;-57
2022/06/07 02:08:23;;;;;;;4.00;2.97;;;;;;;;;;5015884;28;20060;-56
2022/06/07 02:10:49;;;;;;;4.30;3.10;;;;;;;;;;5026780;28;20033;-57
2022/06/07 02:13:15;;;;;;;4.47;3.45;;;;;;;;;;5021537;28;20079;-57
2022/06/07 02:15:41;;;;;;;4.57;3.40;;;;;;;;;;5023853;28;20785;-56
2022/06/07 02:18:07;;;;;;;6.10;3.50;;;;;;;;;;5017780;28;20034;-56
2022/06/07 02:20:33;;;;;;;4.40;3.15;;;;;;;;;;5024988;28;20456;-56
2022/06/07 02:22:59;;;;;;;4.57;3.05;;;;;;;;;;5024680;28;20040;-56
2022/06/07 02:25:26;;;;;;;4.40;2.78;;;;;;;;;;5018213;28;20033;-56
2022/06/07 02:27:52;;;;;;;3.53;2.70;;;;;;;;;;5024149;28;20567;-57
2022/06/07 02:30:19;;;;;;;5.10;3.47;;;;;;;;;;5019504;28;20021;-56
2022/06/07 02:32:45;;;;;;;4.47;3.22;;;;;;;;;;5026020;28;20056;-54
2022/06/07 02:35:11;;;;;;;4.28;3.40;;;;;;;;;;5026303;28;20021;-55
2022/06/07 02:37:38;;;;;;;5.20;3.42;;;;;;;;;;5014808;28;20033;-56
2022/06/07 02:40:04;;;;;;;5.15;3.47;;;;;;;;;;5022401;28;20468;-57
2022/06/07 02:42:31;;;;;;;4.30;3.50;;;;;;;;;;5028457;28;20026;-56
2022/06/07 02:44:57;;;;;;;7.78;4.07;;;;;;;;;;5013969;28;20033;-56
2022/06/07 02:47:23;;;;;;;3.97;3.03;;;;;;;;;;5022198;28;20033;-56
2022/06/07 02:49:50;;;;;;;5.72;3.60;;;;;;;;;;5014391;28;20026;-56
2022/06/07 02:52:16;;;;;;;4.22;2.97;;;;;;;;;;5014807;28;20021;-56
2022/06/07 02:54:42;;;;;;;5.60;3.40;;;;;;;;;;5022992;28;20033;-56
2022/06/07 02:57:08;;;;;;;6.65;3.40;;;;;;;;;;5024114;28;20105;-56
2022/06/07 02:59:34;;;;;;;5.70;3.55;;;;;;;;;;5016797;28;20389;-55
2022/06/07 03:02:00;;;;;;;4.50;3.13;;;;;;;;;;5017396;28;20025;-57
2022/06/07 03:04:26;;;;;;;3.53;2.80;;;;;;;;;;5022662;28;20388;-56
2022/06/07 03:06:52;;;;;;;4.07;2.95;;;;;;;;;;5029138;28;20029;-56
2022/06/07 03:09:18;;;;;;;4.05;3.10;;;;;;;;;;5020722;28;20512;-57
2022/06/07 03:11:44;;;;;;;3.88;3.00;;;;;;;;;;5012786;28;20044;-57
2022/06/07 03:14:11;;;;;;;4.13;2.80;;;;;;;;;;5020879;28;20137;-56
2022/06/07 03:16:37;;;;;;;3.85;3.13;;;;;;;;;;5022163;28;20095;-57
2022/06/07 03:19:03;;;;;;;3.20;2.67;;;;;;;;;;5024832;28;20038;-57
2022/06/07 03:21:29;;;;;;;4.07;2.83;;;;;;;;;;5030291;28;20167;-56
2022/06/07 03:23:55;;;;;;;4.53;2.95;;;;;;;;;;5027234;28;20132;-56
2022/06/07 03:26:22;;;;;;;5.25;3.60;;;;;;;;;;5027341;28;20400;-55
2022/06/07 03:28:48;;;;;;;3.65;2.95;;;;;;;;;;5024196;28;20481;-56
2022/06/07 03:31:15;;;;;;;3.67;2.70;;;;;;;;;;5017267;28;20041;-57
2022/06/07 03:33:41;;;;;;;3.40;2.83;;;;;;;;;;5030855;28;20111;-56
2022/06/07 03:36:11;;;;;;;4.13;3.03;;;;;;;;;;5030870;28;20469;-55
2022/06/07 03:38:37;;;;;;;3.80;2.92;;;;;;;;;;5025966;28;20035;-56
2022/06/07 03:41:03;;;;;;;3.90;2.75;;;;;;;;;;5027579;28;20034;-57
2022/06/07 03:43:29;;;;;;;4.57;3.10;;;;;;;;;;5019274;28;20040;-55
2022/06/07 03:45:56;;;;;;;4.10;2.78;;;;;;;;;;5028750;28;20021;-56
2022/06/07 03:48:22;;;;;;;3.92;2.95;;;;;;;;;;5015399;28;20033;-56
2022/06/07 03:50:48;;;;;;;4.82;3.17;;;;;;;;;;5018149;28;20037;-56
2022/06/07 03:53:14;;;;;;;5.57;2.85;;;;;;;;;;5025795;28;20030;-56
2022/06/07 03:55:47;;;;;;;4.60;3.10;;;;;;;;;;5014572;28;20072;-57
2022/06/07 03:58:14;;;;;;;3.65;2.70;;;;;;;;;;5018973;28;20116;-56
2022/06/07 04:00:40;;;;;;;3.83;2.85;;;;;;;;;;5018131;28;20101;-55
2022/06/07 04:03:06;;;;;;;5.82;3.55;;;;;;;;;;5021213;28;21546;-56
2022/06/07 04:05:32;;;;;;;5.20;3.20;;;;;;;;;;5034027;28;20032;-55
2022/06/07 04:08:13;;;;;;;5.28;3.22;;;;;;;;;;5022134;28;20077;-55
2022/06/07 04:10:58;;;;;;;5.35;3.20;;;;;;;;;;5025074;28;20088;-57
2022/06/07 04:13:26;;;;;;;4.50;3.10;;;;;;;;;;5034003;28;20040;-56
2022/06/07 04:15:52;;;;;;;5.15;3.38;;;;;;;;;;5030891;28;20021;-57
2022/06/07 04:18:18;;;;;;;3.83;3.28;;;;;;;;;;5027815;28;20034;-54
2022/06/07 04:20:44;;;;;;;4.28;3.17;;;;;;;;;;5024317;28;20022;-56
2022/06/07 04:23:13;;;;;;;3.70;2.78;;;;;;;;;;5015640;28;20065;-56
2022/06/07 04:25:40;;;;;;;4.35;3.20;;;;;;;;;;5025050;28;20071;-56
2022/06/07 04:28:06;;;;;;;6.45;3.17;;;;;;;;;;5020070;28;20041;-57
2022/06/07 04:30:32;;;;;;;7.68;3.50;;;;;;;;;;5029134;28;20022;-55
2022/06/07 04:32:58;;;;;;;4.65;3.17;;;;;;;;;;5015912;28;20071;-56
2022/06/07 04:35:24;;;;;;;5.93;3.05;;;;;;;;;;5028788;28;20025;-56
2022/06/07 04:37:50;;;;;;;6.43;2.92;;;;;;;;;;5029095;28;20531;-56
2022/06/07 04:40:17;;;;;;;5.43;3.42;;;;;;;;;;5025523;28;20033;-56
2022/06/07 04:42:43;;;;;;;4.13;3.00;;;;;;;;;;5031652;28;20398;-56
2022/06/07 04:45:13;;;;;;;4.72;3.10;;;;;;;;;;5021035;28;20030;-56
2022/06/07 04:47:39;;;;;;;4.13;2.65;;;;;;;;;;5016930;28;21711;-56
2022/06/07 04:50:06;;;;;;;3.80;2.80;;;;;;;;;;5029837;28;20778;-57
2022/06/07 04:52:32;;;;;;;4.93;2.53;;;;;;;;;;5028085;28;20029;-56
2022/06/07 04:54:58;;;;;;;3.60;2.75;;;;;;;;;;5018310;28;20037;-57
2022/06/07 04:57:24;;;;;;;4.38;2.80;;;;;;;;;;5025007;28;20397;-56
2022/06/07 04:59:50;;;;;;;3.30;2.75;;;;;;;;;;5017932;28;20026;-57
2022/06/07 05:02:16;;;;;;;3.55;2.65;;;;;;;;;;5020032;28;20025;-56
2022/06/07 05:04:42;;;;;;;3.28;2.45;;;;;;;;;;5018240;28;20084;-55
2022/06/07 05:07:08;;;;;;;3.72;2.70;;;;;;;;;;5016552;28;20063;-57
2022/06/07 05:09:34;;;;;;;3.83;2.47;;;;;;;;;;5015714;28;20045;-54
2022/06/07 05:12:01;;;;;;;3.95;2.88;;;;;;;;;;5021977;28;20049;-55
2022/06/07 05:14:27;;;;;;;3.53;2.40;;;;;;;;;;5020888;28;20029;-54
2022/06/07 05:16:53;;;;;;;3.83;2.78;;;;;;;;;;5024468;28;20030;-56
2022/06/07 05:19:20;;;;;;;5.35;2.75;;;;;;;;;;5028462;28;20392;-55
2022/06/07 05:21:46;;;;;;;4.20;2.22;;;;;;;;;;5028305;28;20041;-57
2022/06/07 05:24:12;;;;;;;2.75;2.15;;;;;;;;;;5029875;28;20026;-57
2022/06/07 05:26:41;;;;;;;3.05;2.20;;;;;;;;;;5030022;28;20041;-57
2022/06/07 05:29:14;;;;;;;3.08;2.10;;;;;;;;;;5029053;28;20128;-56
2022/06/07 05:31:40;;;;;;;3.10;2.20;;;;;;;;;;5017889;28;20745;-57
2022/06/07 05:34:06;;;;;;;3.13;2.10;;;;;;;;;;5026309;28;20018;-57
2022/06/07 05:36:32;;;;;;;5.80;2.15;;;;;;;;;;5031789;28;20022;-57
2022/06/07 05:38:58;;;;;;;3.00;2.17;;;;;;;;;;5029204;28;20057;-55
2022/06/07 05:41:25;;;;;;;3.38;2.10;;;;;;;;;;5026260;28;20064;-57
2022/06/07 05:43:52;;;;;;;2.88;2.03;;;;;;;;;;5028311;28;20044;-55
2022/06/07 05:46:18;;;;;;;3.63;2.40;;;;;;;;;;5031129;28;20485;-56
2022/06/07 05:48:44;;;;;;;4.75;2.20;;;;;;;;;;5029917;28;20091;-56
2022/06/07 05:51:10;;;;;;;3.90;1.80;;;;;;;;;;5022724;28;20058;-56
2022/06/07 05:53:36;;;;;;;2.92;1.80;;;;;;;;;;5023162;28;20053;-56
2022/06/07 05:56:10;;;;;;;3.70;1.83;;;;;;;;;;5026296;28;20484;-56
2022/06/07 05:58:36;;;;;;;3.00;1.42;;;;;;;;;;5023261;28;20088;-56
2022/06/07 06:01:02;;;;;;;2.92;1.58;;;;;;;;;;5027813;28;20443;-56
2022/06/07 06:03:28;;;;;;;3.58;1.27;;;;;;;;;;5030592;28;20453;-56
2022/06/07 06:05:54;;;;;;;1.88;1.33;;;;;;;;;;5019424;28;20033;-57
2022/06/07 06:11:11;;;;;;;3.58;1.40;;;;;;;;;;5017983;28;20037;-56
2022/06/07 06:13:37;;;;;;;1.25;0.98;;;;;;;;;;5028777;28;20029;-56
2022/06/07 06:16:05;;;;;;;3.53;1.58;;;;;;;;;;5028974;28;20040;-56
2022/06/07 06:18:31;;;;;;;2.80;1.48;;;;;;;;;;5023800;28;20069;-56
2022/06/07 06:20:57;;;;;;;2.20;1.15;;;;;;;;;;5020974;28;20111;-54
2022/06/07 06:23:23;;;;;;;1.23;0.88;;;;;;;;;;5021039;28;20115;-56
2022/06/07 06:25:49;;;;;;;1.85;1.10;;;;;;;;;;5023266;28;20504;-56
2022/06/07 06:28:16;;;;;;;2.47;1.00;;;;;;;;;;5024521;28;20491;-56
2022/06/07 06:30:45;;;;;;;2.22;1.13;;;;;;;;;;5018451;28;20105;-56
2022/06/07 06:33:14;;;;;;;1.23;0.93;;;;;;;;;;5027953;28;20030;-56
2022/06/07 06:35:48;;;;;;;1.67;0.90;;;;;;;;;;5027566;28;20481;-56
2022/06/07 06:38:14;;;;;;;;;;;;;;;;;;5018037;28;20026;-56
2022/06/07 06:40:41;;;;;;;1.67;1.10;;;;;;;;;;5019983;28;19916;-57
2022/06/07 06:43:07;;;;;;;4.03;1.23;;;;;;;;;;5023712;28;20118;-55
2022/06/07 06:45:33;;;;;;;1.98;1.08;;;;;;;;;;5026442;28;20512;-57
2022/06/07 06:48:01;;;;;;;3.88;1.30;;;;;;;;;;5025645;28;20034;-55
2022/06/07 06:50:27;;;;;;;3.42;1.17;;;;;;;;;;5026013;28;20059;-56
2022/06/07 06:52:53;;;;;;;1.73;1.15;;;;;;;;;;5027674;28;20030;-56
2022/06/07 06:55:19;;;;;;;1.40;1.00;;;;;;;;;;5029707;28;20030;-54
2022/06/07 06:57:47;;;;;;;1.60;1.15;;;;;;;;;;5025111;28;20369;-56
2022/06/07 07:00:13;;;;;;;3.05;0.98;;;;;;;;;;5021810;28;20471;-54
2022/06/07 07:02:39;;;;;;;2.00;1.00;;;;;;;;;;5030729;28;20082;-57
2022/06/07 07:05:05;;;;;;;2.65;1.00;;;;;;;;;;5021572;28;20029;-56
2022/06/07 07:07:31;;;;;;;3.38;1.27;;;;;;;;;;5022309;28;20026;-55
2022/06/07 07:09:57;;;;;;;2.38;0.75;;;;;;;;;;5018961;28;20037;-56
2022/06/07 07:12:23;;;;;;;1.63;1.08;;;;;;;;;;5050671;28;20134;-56
2022/06/07 07:14:50;;;;;;;0.65;0.57;;;;;;;;;;5050279;28;20056;-57
2022/06/07 07:17:16;;;;;;;2.70;0.90;;;;;;;;;;5050963;28;20021;-56
2022/06/07 07:19:42;;;;;;;1.00;0.88;;;;;;;;;;5044399;28;20035;-56
2022/06/07 07:22:08;;;;;;;1.42;0.75;;;;;;;;;;5035481;28;20026;-56
2022/06/07 07:24:34;;;;;;;2.67;0.73;;;;;;;;;;5046596;28;20070;-56
2022/06/07 07:27:00;;;;;;;1.85;1.10;;;;;;;;;;5033941;28;20477;-54
2022/06/07 07:29:26;;;;;;;1.42;0.90;;;;;;;;;;5043072;28;20041;-56
2022/06/07 07:31:52;;;;;;;1.00;0.70;;;;;;;;;;5045366;28;20026;-56
2022/06/07 07:34:19;;;;;;;1.38;0.80;;;;;;;;;;5056339;28;20107;-57
2022/06/07 07:36:47;;;;;;;1.85;0.75;;;;;;;;;;5047967;28;20025;-56
2022/06/07 07:39:13;;;;;;;1.83;0.90;;;;;;;;;;5045559;28;20242;-54
2022/06/07 07:41:39;;;;;;;4.43;0.70;;;;;;;;;;5043157;28;20044;-57
2022/06/07 07:44:11;;;;;;;1.15;0.82;;;;;;;;;;5050602;28;20123;-57
2022/06/07 07:46:38;;;;;;;2.05;0.60;;;;;;;;;;5042610;28;20123;-57
2022/06/07 07:49:04;;;;;;;2.20;0.93;;;;;;;;;;5052119;28;20396;-57
2022/06/07 07:51:32;;;;;;;2.90;0.47;;;;;;;;;;5037810;28;20026;-58
2022/06/07 07:54:00;;;;;;;1.95;0.70;;;;;;;;;;5047715;28;20055;-57
2022/06/07 07:56:27;;;;;;;1.63;0.73;;;;;;;;;;5036887;28;20572;-57
2022/06/07 07:58:54;;;;;;;1.95;0.80;;;;;;;;;;5031316;28;20084;-58
2022/06/07 08:01:23;;;;;;;0.65;0.47;;;;;;;;;;5049029;28;20020;-57
2022/06/07 08:03:50;;;;;;;0.82;0.40;;;;;;;;;;5045851;28;20029;-57
2022/06/07 08:06:17;;;;;;;1.83;0.50;;;;;;;;;;5047288;28;20082;-57
2022/06/07 08:08:45;;;;;;;2.35;0.60;;;;;;;;;;5037500;28;20132;-57
2022/06/07 08:11:11;;;;;;;3.13;0.60;;;;;;;;;;5040643;28;20044;-56
2022/06/07 08:13:37;;;;;;;2.15;0.43;;;;;;;;;;5040543;28;20029;-57
2022/06/07 08:16:04;;;;;;;0.98;0.55;;;;;;;;;;5031572;28;20431;-57
2022/06/07 08:18:30;;;;;;;1.75;0.60;;;;;;;;;;5040272;28;20480;-57
2022/06/07 08:20:57;;;;;;;2.35;0.60;;;;;;;;;;5024200;28;20025;-57
2022/06/07 08:23:23;;;;;;;1.00;0.40;;;;;;;;;;5036455;28;20047;-56
2022/06/07 08:25:49;;;;;;;3.65;0.68;;;;;;;;;;5041064;28;20107;-57
2022/06/07 08:28:15;;;;;;;1.13;0.70;;;;;;;;;;5040077;28;20103;-56
2022/06/07 08:30:46;;;;;;;3.22;0.90;;;;;;;;;;5040543;28;20036;-57
2022/06/07 08:38:42;;;;;;;2.38;0.65;;;;;;;;;;5035307;28;20065;-56
2022/06/07 08:41:18;;;;;;;2.78;0.90;;;;;;;;;;5041482;28;20045;-58
2022/06/07 08:43:45;;;;;;;2.03;0.70;;;;;;;;;;5043519;28;20132;-57
2022/06/07 08:46:13;;;;;;;2.45;0.70;;;;;;;;;;5041380;28;20025;-57
2022/06/07 08:48:40;;;;;;;1.98;1.00;;;;;;;;;;5037685;28;20040;-56
2022/06/07 08:51:21;;;;;;;1.08;0.60;;;;;;;;;;5042656;28;20118;-57
2022/06/07 08:53:52;;;;;;;1.73;0.75;;;;;;;;;;5042048;28;20031;-55
2022/06/07 08:56:21;;;;;;;1.05;0.65;;;;;;;;;;5046749;28;20120;-57
2022/06/07 08:58:49;;;;;;;1.67;0.68;;;;;;;;;;5037536;28;20035;-57
2022/06/07 09:01:30;;;;;;;2.72;0.80;;;;;;;;;;5027412;28;20087;-57
2022/06/07 09:04:11;;;;;;;2.22;0.60;;;;;;;;;;5034144;28;20064;-57
2022/06/07 09:06:40;;;;;;;1.38;0.70;;;;;;;;;;5036062;28;20017;-57
2022/06/07 09:09:07;;;;;;;2.80;0.80;;;;;;;;;;5036522;28;20037;-56
2022/06/07 09:14:33;;;;;;;5.57;0.82;;;;;;;;;;5044164;28;20554;-58
2022/06/07 09:17:02;;;;;;;1.52;0.98;;;;;;;;;;5047936;28;20050;-57
2022/06/07 09:19:29;;;;;;;1.52;0.80;;;;;;;;;;5046018;28;20052;-56
2022/06/07 09:22:01;;;;;;;2.92;1.00;;;;;;;;;;5038883;28;20026;-57
2022/06/07 09:24:30;;;;;;;2.60;0.63;;;;;;;;;;5035700;28;20429;-57
2022/06/07 09:27:11;;;;;;;1.88;1.00;;;;;;;;;;5036889;28;20421;-57
2022/06/07 09:29:38;;;;;;;1.98;0.80;;;;;;;;;;5047034;28;20039;-57
2022/06/07 09:32:09;;;;;;;2.35;0.70;;;;;;;;;;5041927;28;20037;-57
2022/06/07 09:34:37;;;;;;;2.35;0.75;;;;;;;;;;5050931;28;20025;-58
2022/06/07 09:37:05;;;;;;;1.50;0.77;;;;;;;;;;5047330;28;20108;-58
2022/06/07 09:39:36;;;;;;;1.70;0.73;;;;;;;;;;5037587;28;20035;-55
2022/06/07 09:42:02;;;;;;;3.83;0.77;;;;;;;;;;5042207;28;20021;-57
2022/06/07 09:44:32;;;;;;;1.10;0.80;;;;;;;;;;5043739;28;20087;-57
2022/06/07 09:47:01;;;;;;;1.08;0.50;;;;;;;;;;5046728;28;20028;-56
2022/06/07 09:49:38;;;;;;;3.33;0.80;;;;;;;;;;5038114;28;20392;-58
2022/06/07 09:52:24;;;;;;;2.97;0.80;;;;;;;;;;5039585;28;20032;-58
2022/06/07 09:55:04;;;;;;;1.88;0.88;;;;;;;;;;5029329;28;20033;-57
2022/06/07 09:57:33;;;;;;;1.33;0.70;;;;;;;;;;5032239;28;20041;-57
2022/06/07 10:00:20;;;;;;;5.50;0.70;;;;;;;;;;5043670;28;20100;-57
2022/06/07 10:03:05;;;;;;;2.65;0.70;;;;;;;;;;5046705;28;20025;-57
2022/06/07 10:05:42;;;;;;;0.93;0.43;;;;;;;;;;5038196;28;20110;-57
2022/06/07 10:08:27;;;;;;;2.38;0.80;;;;;;;;;;5049407;28;20045;-57
2022/06/07 10:10:55;;;;;;;0.90;0.47;;;;;;;;;;5036116;28;20029;-56
2022/06/07 10:13:43;;;;;;;0.85;0.60;;;;;;;;;;5039815;28;20029;-58
2022/06/07 10:16:21;;;;;;;0.82;0.60;;;;;;;;;;5024734;28;20039;-58
2022/06/07 10:19:01;;;;;;;0.90;0.50;;;;;;;;;;5038573;28;20055;-56
2022/06/07 10:21:46;;;;;;;3.85;0.93;;;;;;;;;;5036497;28;20025;-57
2022/06/07 10:24:36;;;;;;;6.35;0.60;;;;;;;;;;5051079;28;20033;-56
2022/06/07 10:27:05;;;;;;;0.52;0.35;;;;;;;;;;5040520;28;20033;-57
2022/06/07 10:29:46;;;;;;;2.58;0.50;;;;;;;;;;5023186;28;20071;-57
2022/06/07 10:32:31;;;;;;;1.55;0.30;;;;;;;;;;5047760;28;20039;-57
2022/06/07 10:35:03;;;;;;;0.88;0.30;;;;;;;;;;5040836;28;20488;-58
2022/06/07 10:37:34;;;;;;;1.63;0.40;;;;;;;;;;5035411;28;20021;-58
2022/06/07 10:40:15;;;;;;;1.38;0.50;;;;;;;;;;5035864;28;20037;-58
2022/06/07 10:42:45;;;;;;;1.05;0.20;;;;;;;;;;5041839;28;20483;-56
2022/06/07 10:45:19;;;;;;;1.13;0.32;;;;;;;;;;5024965;28;20034;-57
2022/06/07 10:48:05;;;;;;;0.63;0.30;;;;;;;;;;5047918;28;20025;-57
2022/06/07 10:50:35;;;;;;;2.85;0.30;;;;;;;;;;5026116;28;20021;-57
2022/06/07 10:53:05;;;;;;;0.55;0.20;;;;;;;;;;5049900;28;20031;-57
2022/06/07 10:55:37;;;;;;;3.20;0.57;;;;;;;;;;5049656;28;20032;-57
2022/06/07 10:58:12;;;;;;;1.38;0.43;;;;;;;;;;5030223;28;20029;-58
2022/06/07 11:00:41;;;;;;;2.60;0.22;;;;;;;;;;5043838;28;20403;-57
2022/06/07 11:03:07;;;;;;;2.05;0.30;;;;;;;;;;5049736;28;20112;-57
2022/06/07 11:11:14;;;;;;;3.17;0.30;;;;;;;;;;5048858;28;20044;-57
2022/06/07 11:14:04;;;;;;;0.98;0.40;;;;;;;;;;5047771;28;20052;-57
2022/06/07 11:16:40;;;;;;;2.17;0.30;;;;;;;;;;5043032;28;20055;-55
2022/06/07 11:19:06;;;;;;;1.42;0.55;;;;;;;;;;5050945;28;20112;-57
2022/06/07 11:21:33;;;;;;;1.00;0.30;;;;;;;;;;5048639;28;20101;-57
2022/06/07 11:23:59;;;;;;;1.48;0.30;;;;;;;;;;5041326;28;20044;-58
2022/06/07 11:26:25;;;;;;;2.75;0.50;;;;;;;;;;5037603;28;20041;-57
2022/06/07 11:28:53;;;;;;;6.20;0.45;;;;;;;;;;5044470;28;20029;-57
2022/06/07 11:31:22;;;;;;;0.20;0.20;;;;;;;;;;5042734;28;20054;-57
2022/06/07 11:33:47;;;;;;;1.42;0.38;;;;;;;;;;5045809;28;20481;-57
2022/06/07 11:36:13;;;;;;;0.40;0.40;;;;;;;;;;5039971;28;20033;-57
2022/06/07 11:38:55;;;;;;;2.20;0.38;;;;;;;;;;5048478;28;20032;-57
2022/06/07 11:41:39;;;;;;;3.83;0.50;;;;;;;;;;5036811;28;20487;-57
2022/06/07 11:44:25;;;;;;;0.88;0.30;;;;;;;;;;5047260;28;20040;-56
2022/06/07 11:46:51;;;;;;;3.45;0.43;;;;;;;;;;5040901;28;20029;-57
2022/06/07 11:49:20;;;;;;;0.70;0.40;;;;;;;;;;5045666;28;20035;-57
2022/06/07 11:51:57;;;;;;;8.52;0.50;;;;;;;;;;5037912;28;20053;-56
2022/06/07 11:54:31;;;;;;;2.83;0.35;;;;;;;;;;5040218;28;20029;-56
2022/06/07 11:57:00;;;;;;;5.13;0.30;;;;;;;;;;5049564;28;20115;-58
2022/06/07 11:59:34;;;;;;;3.15;0.45;;;;;;;;;;5046602;28;20033;-56
2022/06/07 12:02:00;;;;;;;3.08;0.40;;;;;;;;;;5038065;28;20090;-55
2022/06/07 12:04:29;;;;;;;1.40;0.40;;;;;;;;;;5034191;28;20025;-55
2022/06/07 12:06:58;;;;;;;2.40;0.43;;;;;;;;;;5052973;28;20037;-56
2022/06/07 12:09:24;;;;;;;1.42;0.50;;;;;;;;;;5037506;28;20128;-56
2022/06/07 12:11:49;;;;;;;0.75;0.30;;;;;;;;;;5041815;28;20078;-56
2022/06/07 12:14:20;;;;;;;0.22;0.20;;;;;;;;;;5044529;28;20024;-57
2022/06/07 12:16:54;;;;;;;0.93;0.30;;;;;;;;;;5049700;28;20021;-56
2022/06/07 12:19:23;;;;;;;0.95;0.30;;;;;;;;;;5040232;28;20029;-57
2022/06/07 12:22:01;;;;;;;1.65;0.38;;;;;;;;;;5046170;28;20029;-56
2022/06/07 12:24:29;;;;;;;2.92;0.40;;;;;;;;;;5041258;28;20029;-57
2022/06/07 12:26:55;;;;;;;0.73;0.30;;;;;;;;;;5051700;28;20108;-56
2022/06/07 12:29:26;;;;;;;0.93;0.32;;;;;;;;;;5032777;28;20080;-57
2022/06/07 12:31:54;;;;;;;0.40;0.20;;;;;;;;;;5036780;28;20017;-54
2022/06/07 12:34:24;;;;;;;0.55;0.32;;;;;;;;;;5046873;28;20056;-55
2022/06/07 12:36:52;;;;;;;4.65;0.65;;;;;;;;;;5048343;28;20116;-55
2022/06/07 12:39:19;;;;;;;5.57;0.60;;;;;;;;;;5044271;28;20144;-55
2022/06/07 12:41:56;;;;;;;5.13;0.40;;;;;;;;;;5043502;28;20460;-50
2022/06/07 12:44:25;;;;;;;1.73;0.60;;;;;;;;;;5039936;28;20048;-56
2022/06/07 12:46:52;;;;;;;3.30;0.30;;;;;;;;;;5048647;28;20084;-52
2022/06/07 12:49:20;;;;;;;0.50;0.17;;;;;;;;;;5051711;28;20477;-55
2022/06/07 12:51:54;;;;;;;6.25;0.50;;;;;;;;;;5052914;28;20520;-55
2022/06/07 12:54:23;;;;;;;1.70;0.30;;;;;;;;;;5034311;28;20025;-54
2022/06/07 12:56:53;;;;;;;0.22;0.13;;;;;;;;;;5037334;28;20027;-54
2022/06/07 12:59:24;;;;;;;3.38;0.30;;;;;;;;;;5031628;28;20034;-55
2022/06/07 13:01:51;;;;;;;1.98;0.38;;;;;;;;;;5050335;28;20029;-54
2022/06/07 13:04:20;;;;;;;1.10;0.40;;;;;;;;;;5052158;28;20037;-51
2022/06/07 13:07:01;;;;;;;1.10;0.50;;;;;;;;;;5043900;28;20421;-52
2022/06/07 13:09:27;;;;;;;3.42;0.38;;;;;;;;;;5043639;28;20049;-55
2022/06/07 13:11:53;;;;;;;1.35;0.40;;;;;;;;;;5037050;28;20021;-55
2022/06/07 13:14:20;;;;;;;0.90;0.40;;;;;;;;;;5038136;28;20428;-53
2022/06/07 13:16:47;;;;;;;1.48;0.40;;;;;;;;;;5036674;28;20026;-54
2022/06/07 13:19:17;;;;;;;1.40;0.43;;;;;;;;;;5043726;28;20043;-51
2022/06/07 13:21:51;;;;;;;0.85;0.35;;;;;;;;;;5044754;28;20029;-52
2022/06/07 13:24:23;;;;;;;3.40;0.45;;;;;;;;;;5048887;28;20029;-51
2022/06/07 13:26:51;;;;;;;0.82;0.28;;;;;;;;;;5042765;28;20037;-56
2022/06/07 13:29:27;;;;;;;0.63;0.40;;;;;;;;;;5027555;28;20439;-55
2022/06/07 13:31:55;;;;;;;1.20;0.22;;;;;;;;;;5054817;28;20167;-52
2022/06/07 13:34:26;;;;;;;1.77;0.60;;;;;;;;;;5036726;28;20546;-56
2022/06/07 13:37:09;;;;;;;1.10;0.30;;;;;;;;;;5047625;28;20370;-54
2022/06/07 13:39:36;;;;;;;1.55;0.35;;;;;;;;;;5039683;28;20025;-55
2022/06/07 13:42:14;;;;;;;2.00;0.40;;;;;;;;;;5038582;28;20609;-55
2022/06/07 13:44:44;;;;;;;1.67;0.55;;;;;;;;;;5036285;28;20108;-55
2022/06/07 13:47:25;;;;;;;0.93;0.35;;;;;;;;;;5038345;28;20548;-54
2022/06/07 13:53:27;;;;;;;0.98;0.40;;;;;;;;;;5045161;28;20503;-50
2022/06/07 13:56:06;;;;;;;0.75;0.28;;;;;;;;;;5049782;28;20506;-51
2022/06/07 13:58:34;;;;;;;0.40;0.20;;;;;;;;;;5034519;28;20104;-50
2022/06/07 14:01:01;;;;;;;0.17;0.13;;;;;;;;;;5042487;28;20098;-52
2022/06/07 14:03:33;;;;;;;0.70;0.20;;;;;;;;;;5043482;28;20429;-51
2022/06/07 14:06:00;;;;;;;2.20;0.22;;;;;;;;;;5039070;28;20029;-51
2022/06/07 14:08:27;;;;;;;0.98;0.20;;;;;;;;;;5040322;28;20049;-49
2022/06/07 14:10:53;;;;;;;1.33;0.30;;;;;;;;;;5046330;28;20029;-48
2022/06/07 14:13:19;;;;;;;1.05;0.28;;;;;;;;;;5044253;28;20032;-49
2022/06/07 14:15:46;;;;;;;0.75;0.20;;;;;;;;;;5029416;28;20594;-52
2022/06/07 14:18:14;;;;;;;0.50;0.20;;;;;;;;;;5037483;28;20033;-49
2022/06/07 14:20:40;;;;;;;0.93;0.10;;;;;;;;;;5040256;28;20037;-54
2022/06/07 14:23:10;;;;;;;1.88;0.22;;;;;;;;;;5048964;28;20036;-53
2022/06/07 14:25:36;;;;;;;4.30;0.28;;;;;;;;;;5034962;28;20400;-52
2022/06/07 14:28:01;;;;;;;0.55;0.20;;;;;;;;;;5034554;28;20026;-53
2022/06/07 14:30:28;;;;;;;1.17;0.38;;;;;;;;;;5030298;28;20021;-51
2022/06/07 14:32:56;;;;;;;0.68;0.15;;;;;;;;;;5036785;28;20041;-50
2022/06/07 14:35:23;;;;;;;1.75;0.20;;;;;;;;;;5036391;28;20095;-50
2022/06/07 14:37:54;;;;;;;0.95;0.10;;;;;;;;;;5046418;28;20953;-53
2022/06/07 14:40:25;;;;;;;1.00;0.20;;;;;;;;;;5046386;28;20472;-51
2022/06/07 14:42:53;;;;;;;0.47;0.30;;;;;;;;;;5038263;28;20423;-51
2022/06/07 14:45:20;;;;;;;0.60;0.20;;;;;;;;;;5038093;28;20112;-53
2022/06/07 14:47:48;;;;;;;0.30;0.10;;;;;;;;;;5047545;28;20546;-53
2022/06/07 14:50:19;;;;;;;2.55;0.57;;;;;;;;;;5040334;28;20440;-53
2022/06/07 14:52:47;;;;;;;0.70;0.30;;;;;;;;;;5038546;28;20108;-53
2022/06/07 14:55:14;;;;;;;1.85;0.20;;;;;;;;;;5034689;28;20048;-54
2022/06/07 14:57:43;;;;;;;6.63;1.02;;;;;;;;;;5040442;28;20024;-51
2022/06/07 15:00:13;;;;;;;0.30;0.17;;;;;;;;;;5051484;28;20040;-51
2022/06/07 15:02:40;;;;;;;1.63;0.20;;;;;;;;;;5045200;28;20025;-52
2022/06/07 15:05:12;;;;;;;0.85;0.30;;;;;;;;;;5040850;28;20044;-54
2022/06/07 15:07:52;;;;;;;0.95;0.38;;;;;;;;;;5031762;28;20112;-53
2022/06/07 15:10:20;;;;;;;0.47;0.17;;;;;;;;;;5030813;28;20104;-52
2022/06/07 15:12:46;;;;;;;4.10;0.40;;;;;;;;;;5035563;28;20030;-52
2022/06/07 15:15:12;;;;;;;0.77;0.20;;;;;;;;;;5034807;28;20032;-51
2022/06/07 15:17:46;;;;;;;0.98;0.22;;;;;;;;;;5027089;28;20026;-53
2022/06/07 15:20:22;;;;;;;1.08;0.30;;;;;;;;;;5034723;28;20037;-52